Time;durP1;ratioP1;P1;durP2;ratioP2;P2;SDS_P1;SDS_P2;PMS_P1;PMS_P2;Temp;Humidity;BMP_temperature;BMP_pressure;BME280_temperature;BME280_humidity;BME280_pressure;Samples;Min_cycle;Max_cycle;Signal;HPM_P1;HPM_P2
2023/03/11 00:01:39;;;;;;;10.27;2.78;;;;;;;;;;5037033;28;20056;-21
2023/03/11 00:04:06;;;;;;;4.40;2.30;;;;;;;;;;5037248;28;20103;-22
2023/03/11 00:06:34;;;;;;;8.63;2.63;;;;;;;;;;5037556;28;20026;-25
2023/03/11 00:09:00;;;;;;;5.90;2.22;;;;;;;;;;5036845;28;20362;-21
2023/03/11 00:11:26;;;;;;;7.90;3.15;;;;;;;;;;5019115;28;20056;-22
2023/03/11 00:13:52;;;;;;;6.15;2.25;;;;;;;;;;5037073;28;20481;-24
2023/03/11 00:16:20;;;;;;;5.35;1.80;;;;;;;;;;5036714;28;20532;-23
2023/03/11 00:18:49;;;;;;;10.10;3.20;;;;;;;;;;5036764;28;20096;-24
2023/03/11 00:21:17;;;;;;;6.47;1.90;;;;;;;;;;5036711;28;20021;-23
2023/03/11 00:23:43;;;;;;;5.50;2.70;;;;;;;;;;5036831;28;20413;-21
2023/03/11 00:26:09;;;;;;;6.55;2.40;;;;;;;;;;5036921;28;20025;-22
2023/03/11 00:28:36;;;;;;;2.92;2.08;;;;;;;;;;5037368;28;20052;-22
2023/03/11 00:31:02;;;;;;;3.97;2.42;;;;;;;;;;5036474;28;20036;-24
2023/03/11 00:33:29;;;;;;;4.18;2.40;;;;;;;;;;5036689;28;20072;-22
2023/03/11 00:35:55;;;;;;;6.63;2.85;;;;;;;;;;5036689;28;20112;-22
2023/03/11 00:38:21;;;;;;;3.08;2.28;;;;;;;;;;5036659;28;20087;-21
2023/03/11 00:40:48;;;;;;;6.90;2.28;;;;;;;;;;5036608;28;20025;-22
2023/03/11 00:43:14;;;;;;;8.18;2.67;;;;;;;;;;5036175;28;20029;-22
2023/03/11 00:45:40;;;;;;;5.80;2.47;;;;;;;;;;5036760;28;20327;-23
2023/03/11 00:48:07;;;;;;;3.70;2.67;;;;;;;;;;5036506;28;20359;-22
2023/03/11 00:50:35;;;;;;;9.45;2.40;;;;;;;;;;5036435;28;20335;-22
2023/03/11 00:53:02;;;;;;;4.03;1.92;;;;;;;;;;5035952;28;20033;-22
2023/03/11 00:55:32;;;;;;;4.88;2.08;;;;;;;;;;5036099;28;20465;-22
2023/03/11 00:57:59;;;;;;;6.82;2.53;;;;;;;;;;5036099;28;20049;-22
2023/03/11 01:00:26;;;;;;;4.57;2.33;;;;;;;;;;5036584;28;20346;-24
2023/03/11 01:02:53;;;;;;;7.57;2.03;;;;;;;;;;5035612;28;20446;-21
2023/03/11 01:05:20;;;;;;;5.20;2.30;;;;;;;;;;5035934;28;20450;-23
2023/03/11 01:07:47;;;;;;;3.70;2.13;;;;;;;;;;5036133;28;20021;-22
2023/03/11 01:10:13;;;;;;;11.30;2.60;;;;;;;;;;5036074;28;20035;-22
2023/03/11 01:12:40;;;;;;;5.45;2.50;;;;;;;;;;5035792;28;20040;-22
2023/03/11 01:15:06;;;;;;;3.28;2.22;;;;;;;;;;5035721;28;20524;-23
2023/03/11 01:17:32;;;;;;;9.35;2.05;;;;;;;;;;5035930;28;20037;-22
2023/03/11 01:19:58;;;;;;;3.92;2.00;;;;;;;;;;5035858;28;20091;-21
2023/03/11 01:22:25;;;;;;;3.08;2.40;;;;;;;;;;5034938;28;20037;-23
2023/03/11 01:24:51;;;;;;;4.75;3.42;;;;;;;;;;5035793;28;20387;-23
2023/03/11 01:27:17;;;;;;;2.22;2.00;;;;;;;;;;5035487;28;20025;-25
2023/03/11 01:29:43;;;;;;;6.03;2.30;;;;;;;;;;5035693;28;20052;-25
2023/03/11 01:32:09;;;;;;;3.92;2.13;;;;;;;;;;5035451;28;20034;-22
2023/03/11 01:34:36;;;;;;;4.93;2.35;;;;;;;;;;5035281;28;20036;-24
2023/03/11 01:37:03;;;;;;;4.78;2.42;;;;;;;;;;5035556;28;20026;-22
2023/03/11 01:39:29;;;;;;;4.80;2.10;;;;;;;;;;5035268;28;20055;-23
2023/03/11 01:41:55;;;;;;;6.13;2.75;;;;;;;;;;5035145;28;20032;-23
2023/03/11 01:44:21;;;;;;;5.60;2.70;;;;;;;;;;5035736;28;20438;-21
2023/03/11 01:46:55;;;;;;;3.80;2.55;;;;;;;;;;5035124;28;20087;-22
2023/03/11 01:49:22;;;;;;;3.20;1.88;;;;;;;;;;5035357;28;20061;-22
2023/03/11 01:51:50;;;;;;;9.02;2.10;;;;;;;;;;5034861;28;20115;-21
2023/03/11 01:54:19;;;;;;;8.27;1.77;;;;;;;;;;5035233;28;20056;-22
2023/03/11 01:56:46;;;;;;;7.03;3.47;;;;;;;;;;5034922;28;20035;-25
2023/03/11 01:59:14;;;;;;;2.58;2.22;;;;;;;;;;5017523;28;20026;-22
2023/03/11 02:01:45;;;;;;;5.78;2.30;;;;;;;;;;5035132;28;20026;-22
2023/03/11 02:04:12;;;;;;;3.33;1.98;;;;;;;;;;5034646;28;20128;-22
2023/03/11 02:06:38;;;;;;;3.72;2.05;;;;;;;;;;5034813;28;20025;-24
2023/03/11 02:09:05;;;;;;;3.70;2.22;;;;;;;;;;5034706;28;20040;-22
2023/03/11 02:11:31;;;;;;;3.30;2.35;;;;;;;;;;5034629;28;20055;-22
2023/03/11 02:14:00;;;;;;;3.47;2.40;;;;;;;;;;5034658;28;20037;-22
2023/03/11 02:16:26;;;;;;;3.55;2.10;;;;;;;;;;5034942;28;20045;-23
2023/03/11 02:18:52;;;;;;;5.45;2.20;;;;;;;;;;5034564;28;20151;-25
2023/03/11 02:21:25;;;;;;;8.20;2.55;;;;;;;;;;5034643;28;20029;-26
2023/03/11 02:23:55;;;;;;;6.18;2.40;;;;;;;;;;5034429;28;20488;-24
2023/03/11 02:26:30;;;;;;;4.38;2.22;;;;;;;;;;5034839;28;20450;-23
2023/03/11 02:28:57;;;;;;;3.80;2.10;;;;;;;;;;5034826;28;20025;-23
2023/03/11 02:31:23;;;;;;;2.10;1.90;;;;;;;;;;5034580;28;20105;-24
2023/03/11 02:33:51;;;;;;;4.50;1.83;;;;;;;;;;5034261;28;20022;-23
2023/03/11 02:36:30;;;;;;;5.10;2.10;;;;;;;;;;5034721;28;20093;-22
2023/03/11 02:38:56;;;;;;;4.35;2.38;;;;;;;;;;5017018;28;20035;-23
2023/03/11 02:41:23;;;;;;;2.78;2.30;;;;;;;;;;5034360;28;20025;-25
2023/03/11 02:43:49;;;;;;;3.42;2.60;;;;;;;;;;5034323;28;20402;-23
2023/03/11 02:46:15;;;;;;;3.33;2.25;;;;;;;;;;5034292;28;20051;-22
2023/03/11 02:48:42;;;;;;;6.47;3.05;;;;;;;;;;5034308;28;20109;-23
2023/03/11 02:51:08;;;;;;;2.53;2.22;;;;;;;;;;5034206;28;20040;-22
2023/03/11 02:53:36;;;;;;;3.60;1.80;;;;;;;;;;5034313;28;20021;-22
2023/03/11 02:56:02;;;;;;;5.47;2.20;;;;;;;;;;5034261;28;20018;-23
2023/03/11 02:58:28;;;;;;;5.90;2.00;;;;;;;;;;5034261;28;20026;-22
2023/03/11 03:00:54;;;;;;;4.10;2.25;;;;;;;;;;5034253;28;20022;-22
2023/03/11 03:03:20;;;;;;;5.68;2.22;;;;;;;;;;5034119;28;20053;-23
2023/03/11 03:05:46;;;;;;;2.92;2.25;;;;;;;;;;5034455;28;20474;-22
2023/03/11 03:08:13;;;;;;;4.78;2.10;;;;;;;;;;5034198;28;20033;-23
2023/03/11 03:10:39;;;;;;;3.75;1.70;;;;;;;;;;5034417;28;20385;-25
2023/03/11 03:13:05;;;;;;;4.82;3.75;;;;;;;;;;5034096;28;20052;-24
2023/03/11 03:15:31;;;;;;;5.75;2.40;;;;;;;;;;5034114;28;20021;-24
2023/03/11 03:17:57;;;;;;;3.10;2.30;;;;;;;;;;5034324;28;20036;-23
2023/03/11 03:20:25;;;;;;;4.13;2.05;;;;;;;;;;5034326;28;20022;-22
2023/03/11 03:22:51;;;;;;;7.80;2.13;;;;;;;;;;5033985;28;20501;-22
2023/03/11 03:25:17;;;;;;;3.33;1.90;;;;;;;;;;5016615;28;20113;-22
2023/03/11 03:27:44;;;;;;;3.53;2.03;;;;;;;;;;5034226;28;20029;-23
2023/03/11 03:30:10;;;;;;;4.78;2.10;;;;;;;;;;5033908;28;20117;-22
2023/03/11 03:32:37;;;;;;;3.88;2.17;;;;;;;;;;5033760;28;20037;-22
2023/03/11 03:35:03;;;;;;;5.57;2.50;;;;;;;;;;5033926;28;20092;-22
2023/03/11 03:37:32;;;;;;;3.13;1.98;;;;;;;;;;5033907;28;20454;-22
2023/03/11 03:39:58;;;;;;;3.05;2.53;;;;;;;;;;5034122;28;20037;-22
2023/03/11 03:42:24;;;;;;;3.50;2.33;;;;;;;;;;5016832;28;20032;-23
2023/03/11 03:44:51;;;;;;;4.68;2.40;;;;;;;;;;5035018;28;20026;-22
2023/03/11 03:47:18;;;;;;;2.10;1.90;;;;;;;;;;5038119;28;20086;-23
2023/03/11 03:49:44;;;;;;;2.85;2.10;;;;;;;;;;5037326;28;20041;-22
2023/03/11 03:52:10;;;;;;;2.35;2.05;;;;;;;;;;5037171;28;20025;-23
2023/03/11 03:54:36;;;;;;;4.07;2.13;;;;;;;;;;5037286;28;20112;-22
2023/03/11 03:57:03;;;;;;;2.33;2.13;;;;;;;;;;5037229;28;20037;-22
2023/03/11 03:59:30;;;;;;;2.60;2.10;;;;;;;;;;5037370;28;20021;-24
2023/03/11 04:01:56;;;;;;;2.33;2.10;;;;;;;;;;5037285;28;20029;-25
2023/03/11 04:04:22;;;;;;;2.78;1.77;;;;;;;;;;5036884;28;20060;-22
2023/03/11 04:06:48;;;;;;;5.10;2.67;;;;;;;;;;5037353;28;20030;-24
2023/03/11 04:09:15;;;;;;;2.28;2.08;;;;;;;;;;5037027;28;20419;-22
2023/03/11 04:11:41;;;;;;;3.35;2.20;;;;;;;;;;5036853;28;20406;-23
2023/03/11 04:14:07;;;;;;;4.85;2.03;;;;;;;;;;5036821;28;20021;-23
2023/03/11 04:16:33;;;;;;;3.33;2.30;;;;;;;;;;5037130;28;20074;-23
2023/03/11 04:18:59;;;;;;;2.38;1.77;;;;;;;;;;5036825;28;20053;-26
2023/03/11 04:21:25;;;;;;;2.53;1.95;;;;;;;;;;5037007;28;20036;-25
2023/03/11 04:23:51;;;;;;;2.70;1.90;;;;;;;;;;5019138;28;20030;-23
2023/03/11 04:26:18;;;;;;;3.58;2.13;;;;;;;;;;5036924;28;20072;-22
2023/03/11 04:28:44;;;;;;;3.88;1.70;;;;;;;;;;5036844;28;20052;-23
2023/03/11 04:31:11;;;;;;;3.88;1.90;;;;;;;;;;5036433;28;20057;-24
2023/03/11 04:33:37;;;;;;;3.83;1.85;;;;;;;;;;5036406;28;20097;-22
2023/03/11 04:36:07;;;;;;;5.28;1.65;;;;;;;;;;5036488;28;20486;-22
2023/03/11 04:38:33;;;;;;;4.15;2.08;;;;;;;;;;5036447;28;20033;-22
2023/03/11 04:41:03;;;;;;;2.92;2.10;;;;;;;;;;5036668;28;20018;-22
2023/03/11 04:43:29;;;;;;;6.00;2.22;;;;;;;;;;5036362;28;20033;-25
2023/03/11 04:45:55;;;;;;;4.22;2.38;;;;;;;;;;5036260;28;20033;-23
2023/03/11 04:48:23;;;;;;;2.90;2.15;;;;;;;;;;5036194;28;20120;-22
2023/03/11 04:50:49;;;;;;;3.35;2.13;;;;;;;;;;5036783;28;20026;-22
2023/03/11 04:53:15;;;;;;;3.50;1.80;;;;;;;;;;5035971;28;20049;-22
2023/03/11 04:55:42;;;;;;;4.95;2.22;;;;;;;;;;5035547;28;20032;-22
2023/03/11 04:58:08;;;;;;;2.95;1.85;;;;;;;;;;5035745;28;20421;-22
2023/03/11 05:00:34;;;;;;;3.55;1.63;;;;;;;;;;5036269;28;20033;-24
2023/03/11 05:03:00;;;;;;;2.58;2.38;;;;;;;;;;4999239;28;20046;-22
2023/03/11 05:05:27;;;;;;;3.33;2.08;;;;;;;;;;5016459;28;20026;-23
2023/03/11 05:07:53;;;;;;;5.57;3.30;;;;;;;;;;5016136;28;20026;-22
2023/03/11 05:10:21;;;;;;;3.55;2.10;;;;;;;;;;5016367;28;20073;-22
2023/03/11 05:12:50;;;;;;;4.10;1.88;;;;;;;;;;5015863;28;20459;-27
2023/03/11 05:15:16;;;;;;;6.82;2.38;;;;;;;;;;5016247;28;20030;-25
2023/03/11 05:17:42;;;;;;;2.17;1.55;;;;;;;;;;5016460;28;20064;-23
2023/03/11 05:20:09;;;;;;;5.55;1.88;;;;;;;;;;5015923;28;20064;-22
2023/03/11 05:22:35;;;;;;;3.47;2.17;;;;;;;;;;5015982;28;20026;-22
2023/03/11 05:25:01;;;;;;;2.22;1.88;;;;;;;;;;5016095;28;20040;-23
2023/03/11 05:27:28;;;;;;;5.05;2.17;;;;;;;;;;5016028;28;20115;-24
2023/03/11 05:29:54;;;;;;;3.65;2.13;;;;;;;;;;5015977;28;20401;-23
2023/03/11 05:32:20;;;;;;;3.38;2.10;;;;;;;;;;5015580;28;20026;-24
2023/03/11 05:34:46;;;;;;;3.20;2.35;;;;;;;;;;5015610;28;20022;-22
2023/03/11 05:37:13;;;;;;;2.97;1.75;;;;;;;;;;5015577;28;20410;-22
2023/03/11 05:39:39;;;;;;;3.53;2.20;;;;;;;;;;5015812;28;20022;-22
2023/03/11 05:42:05;;;;;;;3.50;1.95;;;;;;;;;;5015484;28;20117;-25
2023/03/11 05:44:32;;;;;;;1.67;1.40;;;;;;;;;;5015518;28;20061;-22
2023/03/11 05:46:58;;;;;;;3.85;1.95;;;;;;;;;;5014487;28;20462;-23
2023/03/11 05:49:24;;;;;;;5.20;2.15;;;;;;;;;;5015369;28;20108;-22
2023/03/11 05:51:52;;;;;;;2.95;2.13;;;;;;;;;;5015196;28;20109;-23
2023/03/11 05:54:18;;;;;;;3.33;2.40;;;;;;;;;;5015610;28;20030;-22
2023/03/11 05:56:45;;;;;;;3.38;1.98;;;;;;;;;;5016106;28;20022;-22
2023/03/11 05:59:11;;;;;;;2.15;1.95;;;;;;;;;;5015496;28;20025;-23
2023/03/11 06:01:38;;;;;;;2.53;2.08;;;;;;;;;;5015476;28;20026;-22
2023/03/11 06:04:04;;;;;;;3.17;2.38;;;;;;;;;;5027121;28;20041;-27
2023/03/11 06:06:30;;;;;;;4.10;2.90;;;;;;;;;;5035137;28;20029;-22
2023/03/11 06:08:57;;;;;;;2.20;2.00;;;;;;;;;;5034735;28;20033;-21
2023/03/11 06:11:24;;;;;;;2.00;1.80;;;;;;;;;;5035410;28;20030;-26
2023/03/11 06:13:54;;;;;;;2.22;2.03;;;;;;;;;;5034643;28;20036;-23
2023/03/11 06:16:21;;;;;;;3.00;1.52;;;;;;;;;;5034777;28;20032;-23
2023/03/11 06:18:47;;;;;;;2.28;1.67;;;;;;;;;;5034893;28;20026;-23
2023/03/11 06:21:18;;;;;;;1.98;1.88;;;;;;;;;;5034635;28;20029;-23
2023/03/11 06:23:45;;;;;;;5.75;1.92;;;;;;;;;;5035117;28;20025;-23
2023/03/11 06:26:13;;;;;;;2.20;1.80;;;;;;;;;;5034540;28;20044;-22
2023/03/11 06:28:39;;;;;;;2.70;1.38;;;;;;;;;;5034837;28;20101;-26
2023/03/11 06:31:09;;;;;;;2.95;2.05;;;;;;;;;;5034485;28;20021;-22
2023/03/11 06:33:35;;;;;;;3.70;2.08;;;;;;;;;;5034764;28;20163;-24
2023/03/11 06:36:03;;;;;;;2.22;1.80;;;;;;;;;;5034430;28;20032;-23
2023/03/11 06:38:29;;;;;;;2.40;2.20;;;;;;;;;;5034479;28;20025;-22
2023/03/11 06:40:59;;;;;;;2.80;2.33;;;;;;;;;;5034729;28;20057;-23
2023/03/11 06:43:25;;;;;;;3.22;1.98;;;;;;;;;;5034562;28;20468;-22
2023/03/11 06:45:51;;;;;;;2.63;1.67;;;;;;;;;;5034589;28;20033;-23
2023/03/11 06:48:17;;;;;;;3.80;1.85;;;;;;;;;;5034613;28;20030;-23
2023/03/11 06:50:43;;;;;;;2.42;2.08;;;;;;;;;;5034629;28;20025;-25
2023/03/11 06:53:09;;;;;;;2.45;2.25;;;;;;;;;;5034396;28;20036;-24
2023/03/11 06:55:36;;;;;;;3.75;2.45;;;;;;;;;;5034240;28;20033;-25
2023/03/11 06:58:02;;;;;;;2.80;1.98;;;;;;;;;;5034525;28;20025;-25
2023/03/11 07:00:29;;;;;;;2.50;1.55;;;;;;;;;;5034331;28;20358;-24
2023/03/11 07:02:56;;;;;;;2.83;1.90;;;;;;;;;;5033944;28;20041;-23
2023/03/11 07:05:22;;;;;;;4.60;1.67;;;;;;;;;;5034123;28;20025;-24
2023/03/11 07:07:48;;;;;;;2.03;1.83;;;;;;;;;;5034293;28;20095;-23
2023/03/11 07:10:14;;;;;;;3.20;1.70;;;;;;;;;;5034370;28;20184;-23
2023/03/11 07:12:40;;;;;;;2.60;1.77;;;;;;;;;;5033971;28;20021;-24
2023/03/11 07:15:07;;;;;;;3.50;1.70;;;;;;;;;;5016766;28;20026;-22
2023/03/11 07:17:34;;;;;;;7.10;2.38;;;;;;;;;;5034367;28;20053;-23
2023/03/11 07:20:00;;;;;;;4.18;1.95;;;;;;;;;;5017973;28;20163;-24
2023/03/11 07:22:26;;;;;;;3.67;1.67;;;;;;;;;;5037726;28;20045;-22
2023/03/11 07:24:53;;;;;;;3.25;2.35;;;;;;;;;;5038064;28;20100;-22
2023/03/11 07:27:19;;;;;;;3.42;2.30;;;;;;;;;;5020366;28;20039;-25
2023/03/11 07:29:46;;;;;;;2.42;1.50;;;;;;;;;;5037968;28;20034;-23
2023/03/11 07:32:12;;;;;;;2.20;2.00;;;;;;;;;;5038002;28;20036;-23
2023/03/11 07:34:38;;;;;;;5.28;1.77;;;;;;;;;;5037543;28;20021;-22
2023/03/11 07:37:04;;;;;;;1.55;1.45;;;;;;;;;;5037629;28;20022;-22
2023/03/11 07:39:30;;;;;;;2.28;1.80;;;;;;;;;;5020138;28;20406;-23
2023/03/11 07:41:56;;;;;;;3.03;2.00;;;;;;;;;;5037710;28;20033;-23
2023/03/11 07:44:22;;;;;;;2.72;1.80;;;;;;;;;;5037735;28;20075;-23
2023/03/11 07:46:48;;;;;;;2.60;1.92;;;;;;;;;;5037960;28;20520;-22
2023/03/11 07:49:14;;;;;;;2.35;1.85;;;;;;;;;;5037308;28;20037;-23
2023/03/11 07:51:42;;;;;;;2.20;2.00;;;;;;;;;;5037761;28;20486;-22
2023/03/11 07:54:09;;;;;;;2.22;1.90;;;;;;;;;;5037451;28;20025;-23
2023/03/11 07:56:35;;;;;;;2.35;1.52;;;;;;;;;;5037209;28;20033;-26
2023/03/11 07:59:02;;;;;;;2.13;1.85;;;;;;;;;;5037499;28;20374;-22
2023/03/11 08:01:34;;;;;;;2.25;1.80;;;;;;;;;;5037323;28;20105;-27
2023/03/11 08:04:01;;;;;;;1.50;1.40;;;;;;;;;;5019357;28;20426;-22
2023/03/11 08:06:30;;;;;;;2.13;1.83;;;;;;;;;;5037049;28;20029;-22
2023/03/11 08:08:56;;;;;;;1.80;1.70;;;;;;;;;;5037262;28;20033;-27
2023/03/11 08:11:23;;;;;;;2.03;1.60;;;;;;;;;;5036886;28;20059;-22
2023/03/11 08:13:49;;;;;;;2.47;1.50;;;;;;;;;;5036948;28;20444;-27
2023/03/11 08:16:17;;;;;;;2.20;1.90;;;;;;;;;;5037116;28;20032;-22
2023/03/11 08:18:43;;;;;;;1.90;1.60;;;;;;;;;;5036815;28;20017;-22
2023/03/11 08:21:12;;;;;;;2.33;1.80;;;;;;;;;;5036778;28;20029;-27
2023/03/11 08:23:38;;;;;;;2.22;1.88;;;;;;;;;;5036672;28;20025;-22
2023/03/11 08:26:06;;;;;;;2.00;1.65;;;;;;;;;;5036763;28;20426;-23
2023/03/11 08:28:32;;;;;;;2.15;1.70;;;;;;;;;;5036679;28;20508;-23
2023/03/11 08:30:58;;;;;;;1.88;1.65;;;;;;;;;;5036315;28;20550;-22
2023/03/11 08:33:24;;;;;;;2.10;1.80;;;;;;;;;;5036369;28;20049;-25
2023/03/11 08:35:50;;;;;;;2.40;1.88;;;;;;;;;;5036808;28;20037;-22
2023/03/11 08:38:16;;;;;;;2.03;1.70;;;;;;;;;;5036517;28;20446;-22
2023/03/11 08:40:42;;;;;;;1.73;1.63;;;;;;;;;;5036827;28;20074;-22
2023/03/11 08:43:12;;;;;;;2.17;1.80;;;;;;;;;;5036252;28;20021;-23
2023/03/11 08:45:39;;;;;;;1.95;1.85;;;;;;;;;;5036289;28;20514;-24
2023/03/11 08:48:05;;;;;;;2.20;2.00;;;;;;;;;;5018828;28;20037;-22
2023/03/11 08:50:31;;;;;;;2.58;1.80;;;;;;;;;;5036283;28;20032;-25
2023/03/11 08:53:01;;;;;;;2.35;1.90;;;;;;;;;;5036191;28;20030;-23
2023/03/11 08:55:27;;;;;;;2.53;1.60;;;;;;;;;;5036387;28;20040;-23
2023/03/11 08:57:54;;;;;;;2.20;1.85;;;;;;;;;;5036147;28;20450;-23
2023/03/11 09:00:20;;;;;;;3.10;1.98;;;;;;;;;;5018661;28;20021;-23
2023/03/11 09:02:46;;;;;;;2.92;1.85;;;;;;;;;;5035711;28;20033;-24
2023/03/11 09:05:12;;;;;;;2.63;1.88;;;;;;;;;;5036232;28;20112;-23
2023/03/11 09:07:39;;;;;;;2.78;2.13;;;;;;;;;;5035840;28;20029;-22
2023/03/11 09:10:05;;;;;;;2.63;2.15;;;;;;;;;;5035834;28;20029;-23
2023/03/11 09:12:32;;;;;;;4.05;1.98;;;;;;;;;;5035587;28;20101;-22
2023/03/11 09:14:58;;;;;;;2.50;1.70;;;;;;;;;;5035742;28;20068;-30
2023/03/11 09:17:24;;;;;;;4.47;2.05;;;;;;;;;;5035982;28;20339;-23
2023/03/11 09:19:50;;;;;;;2.10;1.60;;;;;;;;;;5035941;28;20177;-24
2023/03/11 09:22:16;;;;;;;3.13;2.65;;;;;;;;;;5035512;28;20036;-25
2023/03/11 09:24:42;;;;;;;2.00;1.60;;;;;;;;;;5018147;28;20033;-22
2023/03/11 09:27:09;;;;;;;1.60;1.50;;;;;;;;;;5035550;28;20094;-23
2023/03/11 09:29:35;;;;;;;1.80;1.70;;;;;;;;;;5035509;28;20087;-23
2023/03/11 09:32:02;;;;;;;2.97;1.77;;;;;;;;;;5035556;28;20060;-22
2023/03/11 09:34:28;;;;;;;3.72;1.83;;;;;;;;;;5036210;28;20372;-23
2023/03/11 09:36:54;;;;;;;2.60;2.10;;;;;;;;;;5035647;28;20035;-25
2023/03/11 09:39:20;;;;;;;4.03;1.80;;;;;;;;;;5035306;28;20021;-23
2023/03/11 09:41:52;;;;;;;2.67;1.42;;;;;;;;;;5034965;28;20045;-23
2023/03/11 09:44:42;;;;;;;1.75;1.60;;;;;;;;;;5034906;28;20034;-24
2023/03/11 09:47:26;;;;;;;1.77;1.50;;;;;;;;;;5023482;28;20134;-27
2023/03/11 09:50:13;;;;;;;2.53;1.60;;;;;;;;;;5035413;28;20025;-22
2023/03/11 09:52:43;;;;;;;1.95;1.85;;;;;;;;;;5035212;28;20033;-22
2023/03/11 09:55:28;;;;;;;1.75;1.40;;;;;;;;;;5017665;28;20029;-22
2023/03/11 09:57:55;;;;;;;1.73;1.60;;;;;;;;;;5035017;28;20426;-23
2023/03/11 10:00:22;;;;;;;1.58;1.45;;;;;;;;;;5034967;28;20026;-22
2023/03/11 10:02:49;;;;;;;1.95;1.83;;;;;;;;;;5034649;28;20363;-23
2023/03/11 10:05:20;;;;;;;2.42;1.83;;;;;;;;;;5035452;28;20183;-22
2023/03/11 10:07:49;;;;;;;1.92;1.73;;;;;;;;;;5035441;28;20026;-24
2023/03/11 10:10:16;;;;;;;4.18;1.50;;;;;;;;;;5035038;28;20104;-22
2023/03/11 10:12:48;;;;;;;1.98;1.58;;;;;;;;;;5034877;28;20123;-25
2023/03/11 10:15:22;;;;;;;2.00;1.90;;;;;;;;;;5034814;28;20429;-25
2023/03/11 10:17:57;;;;;;;1.85;1.75;;;;;;;;;;5034794;28;20053;-22
2023/03/11 10:20:29;;;;;;;2.20;1.63;;;;;;;;;;5034759;28;20162;-24
2023/03/11 10:23:00;;;;;;;1.95;1.55;;;;;;;;;;5034858;28;20034;-22
2023/03/11 10:25:39;;;;;;;1.90;1.80;;;;;;;;;;5034906;28;20084;-23
2023/03/11 10:28:07;;;;;;;3.38;1.63;;;;;;;;;;5034610;28;20040;-24
2023/03/11 10:30:33;;;;;;;1.90;1.70;;;;;;;;;;5034796;28;20040;-23
2023/03/11 10:33:06;;;;;;;2.53;2.28;;;;;;;;;;5034413;28;20044;-22
2023/03/11 10:35:32;;;;;;;6.75;2.30;;;;;;;;;;5034779;28;20022;-22
2023/03/11 10:38:15;;;;;;;2.75;1.60;;;;;;;;;;5034496;28;20030;-25
2023/03/11 10:40:42;;;;;;;1.77;1.52;;;;;;;;;;5034709;28;20026;-23
2023/03/11 10:43:14;;;;;;;2.17;1.50;;;;;;;;;;5034341;28;20032;-28
2023/03/11 10:45:43;;;;;;;3.05;1.90;;;;;;;;;;5034662;28;20040;-23
2023/03/11 10:48:10;;;;;;;1.67;1.58;;;;;;;;;;5034372;28;20037;-22
2023/03/11 10:50:36;;;;;;;1.90;1.80;;;;;;;;;;5034384;28;20412;-22
2023/03/11 10:53:16;;;;;;;2.30;1.75;;;;;;;;;;5034303;28;20347;-23
2023/03/11 10:55:49;;;;;;;3.05;2.05;;;;;;;;;;5038645;28;20412;-25
2023/03/11 10:58:17;;;;;;;1.63;1.50;;;;;;;;;;5038891;28;20022;-26
2023/03/11 11:00:43;;;;;;;1.98;1.88;;;;;;;;;;5039350;28;20109;-23
2023/03/11 11:03:16;;;;;;;1.70;1.60;;;;;;;;;;5038445;28;20534;-24
2023/03/11 11:05:42;;;;;;;1.48;1.38;;;;;;;;;;5038822;28;20029;-24
2023/03/11 11:08:15;;;;;;;1.73;1.63;;;;;;;;;;5038468;28;20021;-23
2023/03/11 11:10:52;;;;;;;4.32;1.70;;;;;;;;;;5038401;28;20026;-24
2023/03/11 11:13:20;;;;;;;2.30;2.03;;;;;;;;;;5037933;28;20343;-22
2023/03/11 11:15:54;;;;;;;1.70;1.60;;;;;;;;;;5037988;28;20021;-22
2023/03/11 11:18:22;;;;;;;1.48;1.38;;;;;;;;;;5038025;28;20021;-22
2023/03/11 11:20:54;;;;;;;2.20;2.00;;;;;;;;;;5038181;28;20032;-22
2023/03/11 11:23:30;;;;;;;2.25;2.05;;;;;;;;;;5037762;28;20033;-22
2023/03/11 11:25:58;;;;;;;1.77;1.38;;;;;;;;;;5038414;28;20112;-29
2023/03/11 11:28:24;;;;;;;1.90;1.80;;;;;;;;;;5037776;28;20033;-24
2023/03/11 11:30:55;;;;;;;2.33;1.70;;;;;;;;;;5037978;28;20354;-23
2023/03/11 11:33:38;;;;;;;1.77;1.47;;;;;;;;;;5020032;28;20104;-22
2023/03/11 11:36:06;;;;;;;1.95;1.75;;;;;;;;;;5037918;28;20390;-22
2023/03/11 11:38:33;;;;;;;1.88;1.67;;;;;;;;;;5037832;28;20407;-23
2023/03/11 11:41:02;;;;;;;1.70;1.60;;;;;;;;;;5037576;28;20451;-23
2023/03/11 11:43:52;;;;;;;2.42;2.22;;;;;;;;;;5037675;28;20029;-23
2023/03/11 11:46:24;;;;;;;2.33;1.50;;;;;;;;;;5025128;28;20034;-25
2023/03/11 11:48:50;;;;;;;2.35;1.80;;;;;;;;;;5037399;28;20525;-26
2023/03/11 11:51:20;;;;;;;1.75;1.60;;;;;;;;;;5037695;28;20026;-23
2023/03/11 11:53:49;;;;;;;2.05;1.88;;;;;;;;;;5037336;28;20029;-24
2023/03/11 11:56:15;;;;;;;2.15;1.88;;;;;;;;;;5037295;28;20087;-23
2023/03/11 11:58:41;;;;;;;2.33;1.77;;;;;;;;;;5037170;28;20494;-22
2023/03/11 12:01:15;;;;;;;2.35;2.08;;;;;;;;;;5037453;28;20145;-23
2023/03/11 12:03:42;;;;;;;1.63;1.52;;;;;;;;;;5036783;28;20140;-23
2023/03/11 12:06:34;;;;;;;1.90;1.63;;;;;;;;;;5037026;28;20021;-23
2023/03/11 12:09:10;;;;;;;2.88;1.83;;;;;;;;;;5032727;28;20056;-23
2023/03/11 12:11:40;;;;;;;2.33;2.15;;;;;;;;;;5036823;28;20040;-27
2023/03/11 12:14:14;;;;;;;1.77;1.67;;;;;;;;;;5037240;28;20493;-23
2023/03/11 12:16:42;;;;;;;2.45;2.00;;;;;;;;;;5036906;28;20044;-23
2023/03/11 12:19:11;;;;;;;2.40;2.20;;;;;;;;;;5036896;28;20026;-23
2023/03/11 12:21:56;;;;;;;1.50;1.40;;;;;;;;;;5037048;28;20384;-23
2023/03/11 12:24:28;;;;;;;2.63;2.05;;;;;;;;;;5036691;28;20036;-23
2023/03/11 12:26:58;;;;;;;1.85;1.60;;;;;;;;;;5036654;28;20030;-24
2023/03/11 12:29:24;;;;;;;1.65;1.55;;;;;;;;;;5019222;28;20025;-23
2023/03/11 12:31:51;;;;;;;1.90;1.80;;;;;;;;;;5036445;28;20339;-24
2023/03/11 12:34:20;;;;;;;2.20;2.00;;;;;;;;;;5036531;28;20021;-22
2023/03/11 12:36:47;;;;;;;1.45;1.35;;;;;;;;;;5036797;28;20107;-23
2023/03/11 12:39:19;;;;;;;1.60;1.50;;;;;;;;;;5036535;28;20040;-23
2023/03/11 12:41:45;;;;;;;2.33;1.60;;;;;;;;;;5036974;28;20025;-23
2023/03/11 12:44:24;;;;;;;1.80;1.70;;;;;;;;;;5036693;28;20108;-23
2023/03/11 12:46:56;;;;;;;3.55;1.52;;;;;;;;;;5036226;28;20033;-25
2023/03/11 12:49:29;;;;;;;1.98;1.40;;;;;;;;;;5036310;28;20022;-24
2023/03/11 12:52:05;;;;;;;2.33;2.15;;;;;;;;;;5036400;28;20033;-25
2023/03/11 12:54:33;;;;;;;1.85;1.75;;;;;;;;;;5036467;28;20032;-23
2023/03/11 12:57:05;;;;;;;1.70;1.60;;;;;;;;;;5036193;28;20087;-23
2023/03/11 12:59:49;;;;;;;1.80;1.70;;;;;;;;;;5036628;28;20031;-22
2023/03/11 13:02:27;;;;;;;1.90;1.80;;;;;;;;;;5036544;28;20027;-26
2023/03/11 13:05:16;;;;;;;1.77;1.67;;;;;;;;;;5035810;28;20130;-24
2023/03/11 13:08:00;;;;;;;2.47;1.67;;;;;;;;;;5036224;28;20040;-23
2023/03/11 13:10:42;;;;;;;1.77;1.67;;;;;;;;;;5035869;28;20461;-25
2023/03/11 13:13:27;;;;;;;2.58;1.85;;;;;;;;;;5035918;28;20029;-22
2023/03/11 13:15:53;;;;;;;1.80;1.70;;;;;;;;;;5036298;28;20320;-24
2023/03/11 13:18:26;;;;;;;3.03;2.10;;;;;;;;;;5034995;28;20048;-23
2023/03/11 13:21:03;;;;;;;1.95;1.77;;;;;;;;;;5018317;28;20026;-22
2023/03/11 13:23:32;;;;;;;1.80;1.70;;;;;;;;;;5035565;28;20037;-24
2023/03/11 13:26:10;;;;;;;2.25;1.92;;;;;;;;;;5035888;28;20021;-27
2023/03/11 13:28:46;;;;;;;1.63;1.52;;;;;;;;;;5035868;28;20105;-22
2023/03/11 13:31:28;;;;;;;2.65;1.67;;;;;;;;;;5035808;28;20110;-24
2023/03/11 13:34:10;;;;;;;1.95;1.40;;;;;;;;;;5035406;28;20203;-25
2023/03/11 13:36:48;;;;;;;1.58;1.48;;;;;;;;;;5035984;28;20037;-23
2023/03/11 13:39:38;;;;;;;2.13;1.92;;;;;;;;;;5035914;28;20072;-22
2023/03/11 13:42:13;;;;;;;1.60;1.50;;;;;;;;;;4990137;28;20037;-22
2023/03/11 13:44:40;;;;;;;1.88;1.67;;;;;;;;;;5035792;28;20029;-22
2023/03/11 13:47:08;;;;;;;1.98;1.83;;;;;;;;;;5035145;28;20472;-22
2023/03/11 13:49:41;;;;;;;2.00;1.88;;;;;;;;;;5092973;27;20824;-23
2023/03/11 13:52:09;;;;;;;1.83;1.73;;;;;;;;;;5092396;28;20028;-22
2023/03/11 13:54:42;;;;;;;1.83;1.50;;;;;;;;;;5092294;28;20024;-21
2023/03/11 13:57:20;;;;;;;2.28;1.83;;;;;;;;;;5092006;28;20059;-21
2023/03/11 13:59:50;;;;;;;2.28;2.13;;;;;;;;;;5092342;28;20407;-21
2023/03/11 14:02:18;;;;;;;1.92;1.73;;;;;;;;;;5092264;28;20096;-21
2023/03/11 14:04:49;;;;;;;1.70;1.60;;;;;;;;;;5092185;28;20036;-22
2023/03/11 14:07:26;;;;;;;1.58;1.48;;;;;;;;;;5092421;28;20024;-22
2023/03/11 14:10:06;;;;;;;2.08;1.83;;;;;;;;;;5092137;28;20046;-21
2023/03/11 14:12:32;;;;;;;1.55;1.45;;;;;;;;;;5092301;28;20094;-22
2023/03/11 14:15:00;;;;;;;1.88;1.77;;;;;;;;;;5091808;28;20021;-22
2023/03/11 14:17:26;;;;;;;2.72;2.25;;;;;;;;;;5091695;28;20024;-22
2023/03/11 14:20:13;;;;;;;2.13;2.00;;;;;;;;;;5091884;28;20055;-24
2023/03/11 14:22:39;;;;;;;1.70;1.60;;;;;;;;;;5091874;28;20043;-24
2023/03/11 14:25:07;;;;;;;1.90;1.80;;;;;;;;;;5091512;28;20100;-21
2023/03/11 14:27:33;;;;;;;1.77;1.65;;;;;;;;;;5091445;28;20032;-26
2023/03/11 14:30:00;;;;;;;1.98;1.88;;;;;;;;;;5091720;28;20012;-21
2023/03/11 14:32:31;;;;;;;1.80;1.52;;;;;;;;;;5091619;28;20052;-22
2023/03/11 14:34:57;;;;;;;;;;;;;;;;;;5091765;28;20013;-23
2023/03/11 14:37:23;;;;;;;1.42;1.33;;;;;;;;;;5091600;28;19904;-22
2023/03/11 14:39:49;;;;;;;1.80;1.65;;;;;;;;;;5091213;28;20027;-22
2023/03/11 14:42:25;;;;;;;1.92;1.63;;;;;;;;;;5091152;28;20130;-21
2023/03/11 14:45:06;;;;;;;1.75;1.65;;;;;;;;;;5091702;28;20553;-24
2023/03/11 14:47:32;;;;;;;1.63;1.52;;;;;;;;;;5091067;28;20024;-21
2023/03/11 14:49:59;;;;;;;2.80;2.30;;;;;;;;;;5091383;28;20031;-22
2023/03/11 14:52:31;;;;;;;1.77;1.60;;;;;;;;;;5090995;28;20099;-21